sensor_id;sensor_type;location;lat;lon;timestamp;pressure;altitude;pressure_sealevel;temperature;humidity
17785;BME280;9016;53.582;10.062;2022-10-13T00:00:39;101937.34;;;12.05;70.28
17785;BME280;9016;53.582;10.062;2022-10-13T00:03:07;101933.94;;;12.02;71.11
17785;BME280;9016;53.582;10.062;2022-10-13T00:05:40;101937.50;;;12.02;70.94
17785;BME280;9016;53.582;10.062;2022-10-13T00:08:10;101932.28;;;11.99;70.80
17785;BME280;9016;53.582;10.062;2022-10-13T00:10:39;101926.66;;;12.05;71.00
17785;BME280;9016;53.582;10.062;2022-10-13T00:13:07;101922.38;;;12.01;70.90
17785;BME280;9016;53.582;10.062;2022-10-13T00:15:37;101927.81;;;12.00;70.73
17785;BME280;9016;53.582;10.062;2022-10-13T00:18:05;101927.16;;;11.94;70.64
17785;BME280;9016;53.582;10.062;2022-10-13T00:20:33;101929.91;;;11.93;71.14
17785;BME280;9016;53.582;10.062;2022-10-13T00:23:02;101926.66;;;11.86;71.93
17785;BME280;9016;53.582;10.062;2022-10-13T00:25:31;101929.31;;;11.86;72.11
17785;BME280;9016;53.582;10.062;2022-10-13T00:27:59;101921.53;;;11.82;72.30
17785;BME280;9016;53.582;10.062;2022-10-13T00:30:27;101919.50;;;11.87;71.84
17785;BME280;9016;53.582;10.062;2022-10-13T00:32:55;101914.31;;;11.84;72.19
17785;BME280;9016;53.582;10.062;2022-10-13T00:35:23;101913.72;;;11.77;72.03
17785;BME280;9016;53.582;10.062;2022-10-13T00:37:51;101913.66;;;11.79;72.47
17785;BME280;9016;53.582;10.062;2022-10-13T00:40:19;101912.81;;;11.78;72.55
17785;BME280;9016;53.582;10.062;2022-10-13T00:42:49;101915.53;;;11.77;72.20
17785;BME280;9016;53.582;10.062;2022-10-13T00:45:21;101907.31;;;11.81;71.76
17785;BME280;9016;53.582;10.062;2022-10-13T00:47:53;101908.47;;;11.76;71.64
17785;BME280;9016;53.582;10.062;2022-10-13T00:50:25;101904.84;;;11.77;71.24
17785;BME280;9016;53.582;10.062;2022-10-13T00:52:55;101905.63;;;11.79;71.81
17785;BME280;9016;53.582;10.062;2022-10-13T00:55:26;101903.03;;;11.77;72.00
17785;BME280;9016;53.582;10.062;2022-10-13T00:57:58;101897.50;;;11.82;71.82
17785;BME280;9016;53.582;10.062;2022-10-13T01:00:31;101900.19;;;11.82;71.35
17785;BME280;9016;53.582;10.062;2022-10-13T01:03:00;101897.50;;;11.82;71.53
17785;BME280;9016;53.582;10.062;2022-10-13T01:05:28;101897.50;;;11.82;71.75
17785;BME280;9016;53.582;10.062;2022-10-13T01:07:58;101893.34;;;11.75;71.73
17785;BME280;9016;53.582;10.062;2022-10-13T01:10:34;101890.84;;;11.72;71.91
17785;BME280;9016;53.582;10.062;2022-10-13T01:13:12;101894.59;;;11.68;71.92
17785;BME280;9016;53.582;10.062;2022-10-13T01:15:49;101892.19;;;11.62;72.62
17785;BME280;9016;53.582;10.062;2022-10-13T01:18:21;101893.19;;;11.59;72.71
17785;BME280;9016;53.582;10.062;2022-10-13T01:21:03;101888.03;;;11.55;72.26
17785;BME280;9016;53.582;10.062;2022-10-13T01:24:15;101884.97;;;11.45;73.12
17785;BME280;9016;53.582;10.062;2022-10-13T01:30:10;101881.53;;;11.23;74.15
17785;BME280;9016;53.582;10.062;2022-10-13T01:33:00;101882.59;;;11.19;74.51
17785;BME280;9016;53.582;10.062;2022-10-13T01:35:40;101882.84;;;11.13;75.14
17785;BME280;9016;53.582;10.062;2022-10-13T01:38:17;101878.66;;;11.08;75.53
17785;BME280;9016;53.582;10.062;2022-10-13T01:40:52;101877.94;;;11.04;75.40
17785;BME280;9016;53.582;10.062;2022-10-13T01:43:29;101873.59;;;11.02;75.29
17785;BME280;9016;53.582;10.062;2022-10-13T01:46:02;101877.31;;;10.97;75.71
17785;BME280;9016;53.582;10.062;2022-10-13T01:48:35;101868.72;;;10.91;76.45
17785;BME280;9016;53.582;10.062;2022-10-13T01:51:06;101866.63;;;10.79;76.73
17785;BME280;9016;53.582;10.062;2022-10-13T01:53:36;101870.75;;;10.86;76.57
17785;BME280;9016;53.582;10.062;2022-10-13T01:56:05;101863.19;;;10.75;76.94
17785;BME280;9016;53.582;10.062;2022-10-13T01:58:34;101859.06;;;10.68;77.79
17785;BME280;9016;53.582;10.062;2022-10-13T02:01:14;101852.06;;;10.66;77.90
17785;BME280;9016;53.582;10.062;2022-10-13T02:03:54;101847.59;;;10.66;78.07
17785;BME280;9016;53.582;10.062;2022-10-13T02:06:30;101851.53;;;10.58;78.45
17785;BME280;9016;53.582;10.062;2022-10-13T02:09:02;101851.66;;;10.55;78.52
17785;BME280;9016;53.582;10.062;2022-10-13T02:11:34;101854.38;;;10.53;78.92
17785;BME280;9016;53.582;10.062;2022-10-13T02:14:06;101859.50;;;10.58;78.90
17785;BME280;9016;53.582;10.062;2022-10-13T02:16:40;101856.13;;;10.54;78.88
17785;BME280;9016;53.582;10.062;2022-10-13T02:19:10;101850.88;;;10.53;79.18
17785;BME280;9016;53.582;10.062;2022-10-13T02:21:39;101852.56;;;10.54;79.66
17785;BME280;9016;53.582;10.062;2022-10-13T02:24:08;101847.19;;;10.55;79.49
17785;BME280;9016;53.582;10.062;2022-10-13T02:26:36;101838.34;;;10.55;79.53
17785;BME280;9016;53.582;10.062;2022-10-13T02:29:08;101840.94;;;10.56;79.48
17785;BME280;9016;53.582;10.062;2022-10-13T02:31:38;101834.88;;;10.53;79.43
17785;BME280;9016;53.582;10.062;2022-10-13T02:34:07;101837.59;;;10.51;80.03
17785;BME280;9016;53.582;10.062;2022-10-13T02:36:34;101836.53;;;10.55;78.99
17785;BME280;9016;53.582;10.062;2022-10-13T02:39:03;101824.72;;;10.61;79.11
17785;BME280;9016;53.582;10.062;2022-10-13T02:41:32;101824.47;;;10.67;79.20
17785;BME280;9016;53.582;10.062;2022-10-13T02:43:59;101823.66;;;10.65;78.58
17785;BME280;9016;53.582;10.062;2022-10-13T02:46:27;101828.94;;;10.66;78.47
17785;BME280;9016;53.582;10.062;2022-10-13T02:48:57;101815.66;;;10.65;78.77
17785;BME280;9016;53.582;10.062;2022-10-13T02:51:25;101823.66;;;10.65;78.98
17785;BME280;9016;53.582;10.062;2022-10-13T02:53:52;101821.94;;;10.64;78.77
17785;BME280;9016;53.582;10.062;2022-10-13T02:56:20;101823.34;;;10.72;78.72
17785;BME280;9016;53.582;10.062;2022-10-13T02:58:48;101830.03;;;10.62;78.99
17785;BME280;9016;53.582;10.062;2022-10-13T03:01:16;101821.66;;;10.70;78.95
17785;BME280;9016;53.582;10.062;2022-10-13T03:03:43;101816.06;;;10.76;78.64
17785;BME280;9016;53.582;10.062;2022-10-13T03:06:13;101824.00;;;10.77;78.44
17785;BME280;9016;53.582;10.062;2022-10-13T03:08:40;101816.16;;;10.74;78.51
17785;BME280;9016;53.582;10.062;2022-10-13T03:11:08;101811.69;;;10.75;78.61
17785;BME280;9016;53.582;10.062;2022-10-13T03:13:36;101807.09;;;10.78;78.66
17785;BME280;9016;53.582;10.062;2022-10-13T03:16:05;101811.28;;;10.84;78.47
17785;BME280;9016;53.582;10.062;2022-10-13T03:18:33;101810.41;;;10.83;78.70
17785;BME280;9016;53.582;10.062;2022-10-13T03:21:03;101803.22;;;10.85;78.31
17785;BME280;9016;53.582;10.062;2022-10-13T03:23:32;101811.34;;;10.82;79.04
17785;BME280;9016;53.582;10.062;2022-10-13T03:26:00;101792.38;;;10.88;78.36
17785;BME280;9016;53.582;10.062;2022-10-13T03:28:29;101797.69;;;10.90;78.51
17785;BME280;9016;53.582;10.062;2022-10-13T03:31:01;101802.00;;;10.92;78.77
17785;BME280;9016;53.582;10.062;2022-10-13T03:33:29;101802.22;;;10.88;79.07
17785;BME280;9016;53.582;10.062;2022-10-13T03:35:58;101797.72;;;10.88;79.01
17785;BME280;9016;53.582;10.062;2022-10-13T03:38:27;101794.31;;;10.85;78.91
17785;BME280;9016;53.582;10.062;2022-10-13T03:40:57;101807.09;;;10.78;79.51
17785;BME280;9016;53.582;10.062;2022-10-13T03:43:24;101803.88;;;10.70;79.88
17785;BME280;9016;53.582;10.062;2022-10-13T03:45:55;101800.28;;;10.71;80.04
17785;BME280;9016;53.582;10.062;2022-10-13T03:48:23;101799.50;;;10.69;80.03
17785;BME280;9016;53.582;10.062;2022-10-13T03:50:51;101796.13;;;10.64;80.57
17785;BME280;9016;53.582;10.062;2022-10-13T03:53:19;101795.22;;;10.65;80.68
17785;BME280;9016;53.582;10.062;2022-10-13T03:55:48;101796.91;;;10.68;80.35
17785;BME280;9016;53.582;10.062;2022-10-13T03:58:18;101791.34;;;10.72;80.53
17785;BME280;9016;53.582;10.062;2022-10-13T04:00:46;101802.97;;;10.71;80.74
17785;BME280;9016;53.582;10.062;2022-10-13T04:03:15;101795.81;;;10.72;80.30
17785;BME280;9016;53.582;10.062;2022-10-13T04:05:43;101795.63;;;10.76;80.32
17785;BME280;9016;53.582;10.062;2022-10-13T04:08:11;101801.03;;;10.75;80.45
17785;BME280;9016;53.582;10.062;2022-10-13T04:10:39;101790.34;;;10.75;80.48
17785;BME280;9016;53.582;10.062;2022-10-13T04:13:07;101799.09;;;10.78;80.42
17785;BME280;9016;53.582;10.062;2022-10-13T04:15:37;101795.47;;;10.79;80.71
17785;BME280;9016;53.582;10.062;2022-10-13T04:18:06;101795.19;;;10.85;80.08
17785;BME280;9016;53.582;10.062;2022-10-13T04:20:36;101788.91;;;10.86;79.77
17785;BME280;9016;53.582;10.062;2022-10-13T04:23:05;101789.00;;;10.85;79.81
17785;BME280;9016;53.582;10.062;2022-10-13T04:25:34;101787.22;;;10.85;80.29
17785;BME280;9016;53.582;10.062;2022-10-13T04:28:02;101788.72;;;10.91;80.49
17785;BME280;9016;53.582;10.062;2022-10-13T04:30:31;101779.75;;;10.93;80.06
17785;BME280;9016;53.582;10.062;2022-10-13T04:33:01;101781.59;;;10.91;80.20
17785;BME280;9016;53.582;10.062;2022-10-13T04:35:29;101785.72;;;10.98;79.86
17785;BME280;9016;53.582;10.062;2022-10-13T04:37:57;101786.72;;;10.96;79.86
17785;BME280;9016;53.582;10.062;2022-10-13T04:40:25;101780.88;;;10.88;79.98
17785;BME280;9016;53.582;10.062;2022-10-13T04:42:53;101779.06;;;10.88;80.17
17785;BME280;9016;53.582;10.062;2022-10-13T04:45:21;101774.88;;;10.83;80.25
17785;BME280;9016;53.582;10.062;2022-10-13T04:47:49;101775.88;;;10.80;80.57
17785;BME280;9016;53.582;10.062;2022-10-13T04:50:19;101778.56;;;10.80;81.00
17785;BME280;9016;53.582;10.062;2022-10-13T04:52:47;101780.50;;;10.77;81.00
17785;BME280;9016;53.582;10.062;2022-10-13T04:55:15;101777.88;;;10.75;81.18
17785;BME280;9016;53.582;10.062;2022-10-13T04:57:43;101776.72;;;10.81;80.81
17785;BME280;9016;53.582;10.062;2022-10-13T05:00:11;101771.63;;;10.76;81.00
17785;BME280;9016;53.582;10.062;2022-10-13T05:02:39;101771.81;;;10.72;80.96
17785;BME280;9016;53.582;10.062;2022-10-13T05:05:08;101772.84;;;10.69;81.81
17785;BME280;9016;53.582;10.062;2022-10-13T05:07:37;101770.97;;;10.71;81.52
17785;BME280;9016;53.582;10.062;2022-10-13T05:10:06;101764.91;;;10.68;81.96
17785;BME280;9016;53.582;10.062;2022-10-13T05:12:34;101768.63;;;10.64;82.16
17785;BME280;9016;53.582;10.062;2022-10-13T05:15:03;101756.13;;;10.66;82.37
17785;BME280;9016;53.582;10.062;2022-10-13T05:17:30;101759.50;;;10.69;82.43
17785;BME280;9016;53.582;10.062;2022-10-13T05:20:01;101754.19;;;10.69;82.19
17785;BME280;9016;53.582;10.062;2022-10-13T05:22:29;101756.75;;;10.71;82.44
17785;BME280;9016;53.582;10.062;2022-10-13T05:24:58;101758.56;;;10.70;82.15
17785;BME280;9016;53.582;10.062;2022-10-13T05:27:26;101752.31;;;10.71;82.41
17785;BME280;9016;53.582;10.062;2022-10-13T05:29:54;101757.56;;;10.73;82.16
17785;BME280;9016;53.582;10.062;2022-10-13T05:32:22;101747.78;;;10.73;82.31
17785;BME280;9016;53.582;10.062;2022-10-13T05:34:49;101751.09;;;10.78;82.42
17785;BME280;9016;53.582;10.062;2022-10-13T05:37:17;101745.53;;;10.83;82.18
17785;BME280;9016;53.582;10.062;2022-10-13T05:39:48;101735.75;;;10.83;81.85
17785;BME280;9016;53.582;10.062;2022-10-13T05:42:17;101748.00;;;10.87;81.93
17785;BME280;9016;53.582;10.062;2022-10-13T05:44:45;101742.53;;;10.90;81.64
17785;BME280;9016;53.582;10.062;2022-10-13T05:47:13;101737.28;;;10.89;81.63
17785;BME280;9016;53.582;10.062;2022-10-13T05:49:41;101744.47;;;10.87;81.83
17785;BME280;9016;53.582;10.062;2022-10-13T05:52:10;101735.22;;;10.95;81.99
17785;BME280;9016;53.582;10.062;2022-10-13T05:54:40;101736.84;;;10.98;81.78
17785;BME280;9016;53.582;10.062;2022-10-13T05:57:12;101719.97;;;10.97;81.66
17785;BME280;9016;53.582;10.062;2022-10-13T05:59:46;101720.41;;;10.88;82.06
17785;BME280;9016;53.582;10.062;2022-10-13T06:02:16;101707.94;;;10.89;81.68
17785;BME280;9016;53.582;10.062;2022-10-13T06:04:48;101714.78;;;10.94;81.88
17785;BME280;9016;53.582;10.062;2022-10-13T06:07:17;101710.41;;;10.93;82.00
17785;BME280;9016;53.582;10.062;2022-10-13T06:09:46;101705.88;;;10.95;81.89
17785;BME280;9016;53.582;10.062;2022-10-13T06:12:14;101706.50;;;11.01;81.60
17785;BME280;9016;53.582;10.062;2022-10-13T06:14:43;101702.97;;;11.00;81.74
17785;BME280;9016;53.582;10.062;2022-10-13T06:17:11;101697.44;;;11.05;81.69
17785;BME280;9016;53.582;10.062;2022-10-13T06:19:39;101703.50;;;11.08;81.60
17785;BME280;9016;53.582;10.062;2022-10-13T06:22:07;101702.25;;;11.15;81.75
17785;BME280;9016;53.582;10.062;2022-10-13T06:24:35;101706.34;;;11.22;81.75
17785;BME280;9016;53.582;10.062;2022-10-13T06:27:03;101707.88;;;11.28;81.21
17785;BME280;9016;53.582;10.062;2022-10-13T06:29:31;101713.28;;;11.26;81.00
17785;BME280;9016;53.582;10.062;2022-10-13T06:32:01;101711.25;;;11.31;80.77
17785;BME280;9016;53.582;10.062;2022-10-13T06:34:29;101709.38;;;11.33;80.45
17785;BME280;9016;53.582;10.062;2022-10-13T06:36:57;101715.78;;;11.29;81.28
17785;BME280;9016;53.582;10.062;2022-10-13T06:39:25;101707.59;;;11.34;81.02
17785;BME280;9016;53.582;10.062;2022-10-13T06:41:53;101701.88;;;11.41;80.26
17785;BME280;9016;53.582;10.062;2022-10-13T06:44:21;101707.94;;;11.45;80.49
17785;BME280;9016;53.582;10.062;2022-10-13T06:46:48;101716.94;;;11.42;80.77
17785;BME280;9016;53.582;10.062;2022-10-13T06:49:18;101719.53;;;11.44;80.59
17785;BME280;9016;53.582;10.062;2022-10-13T06:51:46;101719.31;;;11.48;80.06
17785;BME280;9016;53.582;10.062;2022-10-13T06:54:14;101724.66;;;11.48;80.70
17785;BME280;9016;53.582;10.062;2022-10-13T06:56:42;101719.16;;;11.51;80.42
17785;BME280;9016;53.582;10.062;2022-10-13T06:59:10;101714.50;;;11.56;80.28
17785;BME280;9016;53.582;10.062;2022-10-13T07:01:38;101713.69;;;11.54;80.07
17785;BME280;9016;53.582;10.062;2022-10-13T07:04:07;101724.00;;;11.62;80.50
17785;BME280;9016;53.582;10.062;2022-10-13T07:06:36;101707.69;;;11.68;79.88
17785;BME280;9016;53.582;10.062;2022-10-13T07:09:05;101708.47;;;11.70;79.77
17785;BME280;9016;53.582;10.062;2022-10-13T07:11:33;101698.13;;;11.81;79.25
17785;BME280;9016;53.582;10.062;2022-10-13T07:14:02;101698.88;;;12.02;78.88
17785;BME280;9016;53.582;10.062;2022-10-13T07:16:30;101707.19;;;12.13;78.53
17785;BME280;9016;53.582;10.062;2022-10-13T07:18:58;101691.88;;;12.16;78.27
17785;BME280;9016;53.582;10.062;2022-10-13T07:21:26;101694.16;;;12.24;77.93
17785;BME280;9016;53.582;10.062;2022-10-13T07:23:55;101700.06;;;12.30;77.60
17785;BME280;9016;53.582;10.062;2022-10-13T07:26:23;101699.19;;;12.30;77.63
17785;BME280;9016;53.582;10.062;2022-10-13T07:28:51;101699.00;;;12.33;77.76
17785;BME280;9016;53.582;10.062;2022-10-13T07:31:20;101700.06;;;12.30;77.99
17785;BME280;9016;53.582;10.062;2022-10-13T07:33:49;101707.03;;;12.33;77.62
17785;BME280;9016;53.582;10.062;2022-10-13T07:36:17;101692.34;;;12.41;76.94
17785;BME280;9016;53.582;10.062;2022-10-13T07:38:45;101696.63;;;12.44;77.37
17785;BME280;9016;53.582;10.062;2022-10-13T07:41:15;101687.91;;;12.40;77.36
17785;BME280;9016;53.582;10.062;2022-10-13T07:43:43;101687.91;;;12.57;77.10
17785;BME280;9016;53.582;10.062;2022-10-13T07:46:11;101675.59;;;12.70;76.65
17785;BME280;9016;53.582;10.062;2022-10-13T07:48:40;101673.84;;;12.69;75.83
17785;BME280;9016;53.582;10.062;2022-10-13T07:51:11;101675.44;;;12.73;76.04
17785;BME280;9016;53.582;10.062;2022-10-13T07:53:41;101679.16;;;12.86;76.27
17785;BME280;9016;53.582;10.062;2022-10-13T07:56:10;101692.22;;;12.92;75.85
17785;BME280;9016;53.582;10.062;2022-10-13T07:58:41;101691.63;;;13.03;75.34
17785;BME280;9016;53.582;10.062;2022-10-13T08:01:10;101694.13;;;13.06;74.70
17785;BME280;9016;53.582;10.062;2022-10-13T08:03:38;101697.16;;;13.16;75.30
17785;BME280;9016;53.582;10.062;2022-10-13T08:06:13;101688.38;;;13.14;74.45
17785;BME280;9016;53.582;10.062;2022-10-13T08:08:41;101693.97;;;13.25;75.00
17785;BME280;9016;53.582;10.062;2022-10-13T08:11:14;101683.03;;;13.29;74.68
17785;BME280;9016;53.582;10.062;2022-10-13T08:13:47;101693.66;;;13.31;74.61
17785;BME280;9016;53.582;10.062;2022-10-13T08:16:15;101686.81;;;13.25;74.30
17785;BME280;9016;53.582;10.062;2022-10-13T08:18:44;101691.94;;;13.30;74.36
17785;BME280;9016;53.582;10.062;2022-10-13T08:21:14;101681.19;;;13.45;74.22
17785;BME280;9016;53.582;10.062;2022-10-13T08:24:04;101667.72;;;13.47;74.52
17785;BME280;9016;53.582;10.062;2022-10-13T08:26:32;101668.75;;;13.60;73.35
17785;BME280;9016;53.582;10.062;2022-10-13T08:29:01;101675.56;;;13.65;73.84
17785;BME280;9016;53.582;10.062;2022-10-13T08:31:50;101662.41;;;13.76;73.86
17785;BME280;9016;53.582;10.062;2022-10-13T08:34:19;101665.31;;;13.87;73.04
17785;BME280;9016;53.582;10.062;2022-10-13T08:36:47;101676.16;;;14.00;72.82
17785;BME280;9016;53.582;10.062;2022-10-13T08:39:19;101664.75;;;13.97;72.38
17785;BME280;9016;53.582;10.062;2022-10-13T08:41:48;101666.22;;;14.02;72.69
17785;BME280;9016;53.582;10.062;2022-10-13T08:44:21;101667.00;;;14.04;72.55
17785;BME280;9016;53.582;10.062;2022-10-13T08:47:19;101660.28;;;14.11;72.37
17785;BME280;9016;53.582;10.062;2022-10-13T08:49:49;101669.31;;;14.24;72.72
17785;BME280;9016;53.582;10.062;2022-10-13T08:52:26;101663.75;;;14.13;73.08
17785;BME280;9016;53.582;10.062;2022-10-13T08:54:55;101670.28;;;14.23;72.67
17785;BME280;9016;53.582;10.062;2022-10-13T08:57:24;101666.13;;;14.33;72.72
17785;BME280;9016;53.582;10.062;2022-10-13T08:59:53;101660.13;;;14.44;72.06
17785;BME280;9016;53.582;10.062;2022-10-13T09:02:23;101676.31;;;14.56;71.94
17785;BME280;9016;53.582;10.062;2022-10-13T09:04:53;101687.25;;;14.67;71.86
17785;BME280;9016;53.582;10.062;2022-10-13T09:07:23;101679.41;;;14.64;71.70
17785;BME280;9016;53.582;10.062;2022-10-13T09:09:54;101671.03;;;14.69;71.66
17785;BME280;9016;53.582;10.062;2022-10-13T09:12:23;101669.03;;;14.72;71.67
17785;BME280;9016;53.582;10.062;2022-10-13T09:15:01;101661.72;;;14.88;71.46
17785;BME280;9016;53.582;10.062;2022-10-13T09:17:33;101656.19;;;14.92;71.22
17785;BME280;9016;53.582;10.062;2022-10-13T09:20:04;101658.94;;;15.04;70.97
17785;BME280;9016;53.582;10.062;2022-10-13T09:22:35;101648.75;;;15.09;70.19
17785;BME280;9016;53.582;10.062;2022-10-13T09:25:16;101636.94;;;15.26;70.36
17785;BME280;9016;53.582;10.062;2022-10-13T09:27:47;101634.25;;;15.26;69.71
17785;BME280;9016;53.582;10.062;2022-10-13T09:30:30;101642.84;;;15.45;70.00
17785;BME280;9016;53.582;10.062;2022-10-13T09:33:14;101638.84;;;15.64;68.67
17785;BME280;9016;53.582;10.062;2022-10-13T09:35:44;101641.22;;;15.69;68.26
17785;BME280;9016;53.582;10.062;2022-10-13T09:38:15;101650.44;;;15.65;68.69
17785;BME280;9016;53.582;10.062;2022-10-13T09:40:56;101651.72;;;15.86;68.58
17785;BME280;9016;53.582;10.062;2022-10-13T09:43:28;101643.56;;;16.00;68.44
17785;BME280;9016;53.582;10.062;2022-10-13T09:45:58;101652.28;;;16.16;68.04
17785;BME280;9016;53.582;10.062;2022-10-13T09:48:30;101649.47;;;16.18;67.73
17785;BME280;9016;53.582;10.062;2022-10-13T09:50:59;101650.31;;;15.93;67.71
17785;BME280;9016;53.582;10.062;2022-10-13T09:53:30;101645.19;;;16.28;68.46
17785;BME280;9016;53.582;10.062;2022-10-13T09:56:08;101648.78;;;16.53;67.02
17785;BME280;9016;53.582;10.062;2022-10-13T09:58:43;101639.72;;;16.42;67.35
17785;BME280;9016;53.582;10.062;2022-10-13T10:01:20;101631.22;;;16.60;66.86
17785;BME280;9016;53.582;10.062;2022-10-13T10:03:50;101633.91;;;16.73;66.28
17785;BME280;9016;53.582;10.062;2022-10-13T10:06:18;101622.97;;;16.63;65.79
17785;BME280;9016;53.582;10.062;2022-10-13T10:08:55;101615.56;;;16.54;67.12
17785;BME280;9016;53.582;10.062;2022-10-13T10:11:33;101623.25;;;16.71;66.31
17785;BME280;9016;53.582;10.062;2022-10-13T10:14:12;101613.22;;;16.86;66.16
17785;BME280;9016;53.582;10.062;2022-10-13T10:16:48;101623.31;;;17.08;65.62
17785;BME280;9016;53.582;10.062;2022-10-13T10:19:25;101623.75;;;17.02;65.33
17785;BME280;9016;53.582;10.062;2022-10-13T10:22:01;101621.72;;;16.93;65.82
17785;BME280;9016;53.582;10.062;2022-10-13T10:24:40;101614.09;;;16.87;65.71
17785;BME280;9016;53.582;10.062;2022-10-13T10:27:16;101614.59;;;16.92;66.28
17785;BME280;9016;53.582;10.062;2022-10-13T10:29:52;101613.41;;;16.96;66.34
17785;BME280;9016;53.582;10.062;2022-10-13T10:32:34;101615.16;;;16.84;66.27
17785;BME280;9016;53.582;10.062;2022-10-13T10:35:11;101606.56;;;16.79;66.45
17785;BME280;9016;53.582;10.062;2022-10-13T10:37:52;101619.16;;;16.91;66.29
17785;BME280;9016;53.582;10.062;2022-10-13T10:40:33;101603.84;;;16.92;66.06
17785;BME280;9016;53.582;10.062;2022-10-13T10:43:29;101595.91;;;17.14;65.39
17785;BME280;9016;53.582;10.062;2022-10-13T10:46:01;101604.22;;;17.11;66.98
17785;BME280;9016;53.582;10.062;2022-10-13T10:48:37;101590.19;;;17.18;66.32
17785;BME280;9016;53.582;10.062;2022-10-13T10:51:07;101591.75;;;17.10;67.03
17785;BME280;9016;53.582;10.062;2022-10-13T10:53:39;101583.41;;;17.13;66.80
17785;BME280;9016;53.582;10.062;2022-10-13T10:56:16;101587.94;;;17.12;67.17
17785;BME280;9016;53.582;10.062;2022-10-13T10:58:51;101582.66;;;17.11;66.82
17785;BME280;9016;53.582;10.062;2022-10-13T11:01:27;101573.69;;;17.23;66.98
17785;BME280;9016;53.582;10.062;2022-10-13T11:04:17;101567.00;;;17.28;66.31
17785;BME280;9016;53.582;10.062;2022-10-13T11:06:51;101560.78;;;17.39;66.28
17785;BME280;9016;53.582;10.062;2022-10-13T11:12:22;101559.25;;;17.47;66.31
17785;BME280;9016;53.582;10.062;2022-10-13T11:15:02;101551.66;;;17.52;65.31
17785;BME280;9016;53.582;10.062;2022-10-13T11:17:34;101545.31;;;17.53;65.86
17785;BME280;9016;53.582;10.062;2022-10-13T11:20:56;101540.59;;;17.68;65.53
17785;BME280;9016;53.582;10.062;2022-10-13T11:23:32;101532.38;;;17.69;65.24
17785;BME280;9016;53.582;10.062;2022-10-13T11:26:40;101524.28;;;17.69;64.70
17785;BME280;9016;53.582;10.062;2022-10-13T11:29:17;101529.06;;;17.66;65.17
17785;BME280;9016;53.582;10.062;2022-10-13T11:31:49;101524.25;;;17.58;65.82
17785;BME280;9016;53.582;10.062;2022-10-13T11:34:30;101528.81;;;17.45;65.71
17785;BME280;9016;53.582;10.062;2022-10-13T11:37:01;101526.09;;;17.34;66.62
17785;BME280;9016;53.582;10.062;2022-10-13T11:45:58;101528.28;;;17.53;66.56
17785;BME280;9016;53.582;10.062;2022-10-13T11:48:54;101529.53;;;17.60;66.28
17785;BME280;9016;53.582;10.062;2022-10-13T11:51:35;101528.81;;;17.69;66.63
17785;BME280;9016;53.582;10.062;2022-10-13T11:54:20;101519.19;;;17.89;66.00
17785;BME280;9016;53.582;10.062;2022-10-13T11:56:52;101524.47;;;18.01;65.18
17785;BME280;9016;53.582;10.062;2022-10-13T11:59:23;101510.75;;;18.26;65.51
17785;BME280;9016;53.582;10.062;2022-10-13T12:01:53;101516.53;;;18.33;65.07
17785;BME280;9016;53.582;10.062;2022-10-13T12:04:23;101509.66;;;18.40;65.09
17785;BME280;9016;53.582;10.062;2022-10-13T12:06:55;101515.69;;;18.43;64.48
17785;BME280;9016;53.582;10.062;2022-10-13T12:09:25;101515.56;;;18.45;64.34
17785;BME280;9016;53.582;10.062;2022-10-13T12:12:08;101514.06;;;18.30;64.32
17785;BME280;9016;53.582;10.062;2022-10-13T12:14:41;101509.78;;;18.38;65.58
17785;BME280;9016;53.582;10.062;2022-10-13T12:17:21;101510.91;;;18.47;64.20
17785;BME280;9016;53.582;10.062;2022-10-13T12:19:51;101504.16;;;18.41;65.60
17785;BME280;9016;53.582;10.062;2022-10-13T12:22:19;101509.06;;;18.47;65.40
17785;BME280;9016;53.582;10.062;2022-10-13T12:24:58;101501.22;;;18.44;64.25
17785;BME280;9016;53.582;10.062;2022-10-13T12:27:29;101488.69;;;18.43;65.35
17785;BME280;9016;53.582;10.062;2022-10-13T12:29:59;101496.78;;;18.54;65.14
17785;BME280;9016;53.582;10.062;2022-10-13T12:32:28;101488.94;;;18.51;65.04
17785;BME280;9016;53.582;10.062;2022-10-13T12:35:09;101489.06;;;18.50;64.40
17785;BME280;9016;53.582;10.062;2022-10-13T12:37:37;101493.34;;;18.30;65.55
17785;BME280;9016;53.582;10.062;2022-10-13T12:40:12;101486.88;;;18.44;64.97
17785;BME280;9016;53.582;10.062;2022-10-13T12:42:41;101485.75;;;18.46;65.24
17785;BME280;9016;53.582;10.062;2022-10-13T12:45:14;101491.88;;;18.48;64.76
17785;BME280;9016;53.582;10.062;2022-10-13T12:47:48;101487.22;;;18.50;64.87
17785;BME280;9016;53.582;10.062;2022-10-13T12:50:35;101487.34;;;18.49;64.99
17785;BME280;9016;53.582;10.062;2022-10-13T12:53:12;101486.59;;;18.58;64.00
17785;BME280;9016;53.582;10.062;2022-10-13T12:55:48;101484.88;;;18.57;63.90
17785;BME280;9016;53.582;10.062;2022-10-13T12:58:19;101481.66;;;18.63;64.34
17785;BME280;9016;53.582;10.062;2022-10-13T13:01:05;101472.88;;;18.61;63.61
17785;BME280;9016;53.582;10.062;2022-10-13T13:03:35;101479.84;;;18.52;64.12
17785;BME280;9016;53.582;10.062;2022-10-13T13:06:10;101477.53;;;18.59;64.33
17785;BME280;9016;53.582;10.062;2022-10-13T13:09:06;101472.75;;;18.51;65.01
17785;BME280;9016;53.582;10.062;2022-10-13T13:11:37;101471.53;;;18.44;64.52
17785;BME280;9016;53.582;10.062;2022-10-13T13:14:22;101476.94;;;18.44;64.78
17785;BME280;9016;53.582;10.062;2022-10-13T13:17:12;101483.75;;;18.37;64.95
17785;BME280;9016;53.582;10.062;2022-10-13T13:19:54;101478.75;;;18.22;65.58
17785;BME280;9016;53.582;10.062;2022-10-13T13:22:23;101478.75;;;18.11;65.75
17785;BME280;9016;53.582;10.062;2022-10-13T13:24:52;101476.78;;;18.13;66.38
17785;BME280;9016;53.582;10.062;2022-10-13T13:27:23;101475.66;;;18.04;66.24